Home > Products > Valid Products > TAF

000
FTUS44 KLCH 092333
TAFLFT
TAF
KLFT 092333Z 1000/1024 32014G24KT P6SM SKC
     FM100200 31010KT P6SM SKC
     FM100400 VRB05KT P6SM SKC=



000
FTUS44 KLCH 092333
TAFARA
TAF
KARA 092333Z 1000/1024 32014G22KT P6SM SKC
     FM100200 31011KT P6SM SKC
     FM100400 VRB05KT P6SM SKC=



000
FTUS44 KLCH 092333
TAFAEX
TAF
KAEX 092333Z 1000/1024 32010G21KT P6SM SKC
     FM100300 VRB04KT P6SM SKC=



000
FTUS44 KLCH 092333
TAFLCH
TAF
KLCH 092333Z 1000/1024 31011G22KT P6SM SKC
     FM100200 VRB05KT P6SM SKC=



000
FTUS44 KLCH 092333
TAFBPT
TAF
KBPT 092333Z 1000/1024 30010G21KT P6SM SKC
     FM100200 VRB05KT P6SM SKC=



000
FTUS44 KLCH 092333
TAFLFT
TAF
KLFT 092333Z 1000/1024 32014G24KT P6SM SKC
     FM100200 31010KT P6SM SKC
     FM100400 VRB05KT P6SM SKC=



000
FTUS44 KLCH 092333
TAFARA
TAF
KARA 092333Z 1000/1024 32014G22KT P6SM SKC
     FM100200 31011KT P6SM SKC
     FM100400 VRB05KT P6SM SKC=



000
FTUS44 KLCH 092333
TAFAEX
TAF
KAEX 092333Z 1000/1024 32010G21KT P6SM SKC
     FM100300 VRB04KT P6SM SKC=



000
FTUS44 KLCH 092333
TAFLCH
TAF
KLCH 092333Z 1000/1024 31011G22KT P6SM SKC
     FM100200 VRB05KT P6SM SKC=



000
FTUS44 KLCH 092333
TAFBPT
TAF
KBPT 092333Z 1000/1024 30010G21KT P6SM SKC
     FM100200 VRB05KT P6SM SKC=



000
FTUS44 KLCH 091729
TAFARA
TAF
KARA 091729Z 0918/1018 32018G26KT P6SM SKC
     FM100000 31011KT P6SM SKC
     FM100400 VRB05KT P6SM SKC=



000
FTUS44 KLCH 091729
TAFBPT
TAF
KBPT 091729Z 0918/1018 31016G22KT P6SM SKC
     FM100200 VRB05KT P6SM SKC=



000
FTUS44 KLCH 091729
TAFLCH
TAF
KLCH 091729Z 0918/1018 31017G24KT P6SM SKC
     FM100200 VRB05KT P6SM SKC=



000
FTUS44 KLCH 091729
TAFLFT
TAF
KLFT 091729Z 0918/1018 32018G25KT P6SM SKC
     FM100000 31010KT P6SM SKC
     FM100400 VRB05KT P6SM SKC=



000
FTUS44 KLCH 091729
TAFAEX
TAF
KAEX 091729Z 0918/1018 32016G24KT P6SM SKC
     FM100000 32010KT P6SM SKC
     FM100300 VRB04KT P6SM SKC=



000
FTUS44 KLCH 091729
TAFLCH
TAF
KLCH 091729Z 0918/1018 31017G24KT P6SM SKC
     FM100200 VRB05KT P6SM SKC=



000
FTUS44 KLCH 091729
TAFBPT
TAF
KBPT 091729Z 0918/1018 31016G22KT P6SM SKC
     FM100200 VRB05KT P6SM SKC=



000
FTUS44 KLCH 091729
TAFLFT
TAF
KLFT 091729Z 0918/1018 32018G25KT P6SM SKC
     FM100000 31010KT P6SM SKC
     FM100400 VRB05KT P6SM SKC=



000
FTUS44 KLCH 091729
TAFAEX
TAF
KAEX 091729Z 0918/1018 32016G24KT P6SM SKC
     FM100000 32010KT P6SM SKC
     FM100300 VRB04KT P6SM SKC=



000
FTUS44 KLCH 091729
TAFARA
TAF
KARA 091729Z 0918/1018 32018G26KT P6SM SKC
     FM100000 31011KT P6SM SKC
     FM100400 VRB05KT P6SM SKC=



000
FTUS44 KLCH 091120
TAFLFT
TAF
KLFT 091120Z 0912/1012 32011G17KT P6SM SKC
     FM091500 32017G25KT P6SM SKC
     FM100200 30005KT P6SM SKC=



000
FTUS44 KLCH 091120
TAFAEX
TAF
KAEX 091120Z 0912/1012 29008KT P6SM SKC
     FM091500 30015G23KT P6SM SKC
     FM100200 30004KT P6SM SKC=



000
FTUS44 KLCH 091120
TAFLCH
TAF
KLCH 091120Z 0912/1012 31008KT P6SM SKC
     FM091500 31016G22KT P6SM SKC
     FM100200 31004KT P6SM SKC=



000
FTUS44 KLCH 091120
TAFARA
TAF
KARA 091120Z 0912/1012 30008KT P6SM SKC
     FM091500 32018G26KT P6SM SKC
     FM100200 30005KT P6SM SKC=



000
FTUS44 KLCH 091120
TAFARA
TAF
KARA 091120Z 0912/1012 30008KT P6SM SKC
     FM091500 32018G26KT P6SM SKC
     FM100200 30005KT P6SM SKC=



000
FTUS44 KLCH 091120
TAFBPT
TAF
KBPT 091120Z 0912/1012 32009KT P6SM SKC
     FM091500 31016G24KT P6SM SKC
     FM100200 32005KT P6SM SKC=



000
FTUS44 KLCH 091120
TAFAEX
TAF
KAEX 091120Z 0912/1012 29008KT P6SM SKC
     FM091500 30015G23KT P6SM SKC
     FM100200 30004KT P6SM SKC=



000
FTUS44 KLCH 091120
TAFBPT
TAF
KBPT 091120Z 0912/1012 32009KT P6SM SKC
     FM091500 31016G24KT P6SM SKC
     FM100200 32005KT P6SM SKC=



000
FTUS44 KLCH 090844 AAA
TAFLFT
TAF AMD
KLFT 090844Z 0909/1006 30011G17KT P6SM SKC
     FM091500 32016G24KT P6SM SKC=



000
FTUS44 KLCH 090525
TAFLFT
TAF
KLFT 090525Z 0906/1006 27007KT P6SM SKC
     FM091500 32016G24KT P6SM SKC=



000
FTUS44 KLCH 090525
TAFLCH
TAF
KLCH 090525Z 0906/1006 27006KT P6SM SKC
     FM091500 32016G24KT P6SM SKC=



000
FTUS44 KLCH 090525
TAFBPT
TAF
KBPT 090525Z 0906/1006 27006KT P6SM SKC
     FM091500 31015G23KT P6SM SKC=



000
FTUS44 KLCH 090525
TAFAEX
TAF
KAEX 090525Z 0906/1006 28006KT P6SM SKC
     FM091500 31014G22KT P6SM SKC=



000
FTUS44 KLCH 090525
TAFARA
TAF
KARA 090525Z 0906/1006 28008KT P6SM SKC
     FM091500 32018G26KT P6SM SKC=



000
FTUS44 KLCH 090216 AAA
TAFARA
TAF AMD
KARA 090216Z 0902/0924 32008KT P6SM SKC
     FM091500 32018G26KT P6SM SKC=



000
FTUS44 KLCH 090215 AAB
TAFLCH
TAF AMD
KLCH 090215Z 0902/0924 31008KT P6SM SKC
     FM091500 32016G24KT P6SM SKC=



000
FTUS44 KLCH 090215 AAA
TAFLFT
TAF AMD
KLFT 090215Z 0902/0924 32008KT P6SM SKC
     FM091500 32016G24KT P6SM SKC=



000
FTUS44 KLCH 090215 AAA
TAFBPT
TAF AMD
KBPT 090215Z 0902/0924 30009KT P6SM SKC
     FM091500 31015G23KT P6SM SKC=



000
FTUS44 KLCH 090215 AAB
TAFLCH
TAF AMD
KLCH 090215Z 0902/0924 31008KT P6SM SKC
     FM091500 32016G24KT P6SM SKC=



000
FTUS44 KLCH 090215 AAA
TAFBPT
TAF AMD
KBPT 090215Z 0902/0924 30009KT P6SM SKC
     FM091500 31015G23KT P6SM SKC=



000
FTUS44 KLCH 090215 AAA
TAFLFT
TAF AMD
KLFT 090215Z 0902/0924 32008KT P6SM SKC
     FM091500 32016G24KT P6SM SKC=



000
FTUS44 KLCH 090214 AAA
TAFAEX
TAF AMD
KAEX 090214Z 0902/0924 30008KT P6SM SKC
     FM091500 31014G22KT P6SM SKC=



000
FTUS44 KLCH 090214 AAA
TAFAEX
TAF AMD
KAEX 090214Z 0902/0924 30008KT P6SM SKC
     FM091500 31014G22KT P6SM SKC=



000
FTUS44 KLCH 082320
TAFARA
TAF
KARA 082320Z 0900/0924 31020G32KT P6SM SKC
     FM090200 32014G22KT P6SM SKC
     FM090600 32008KT P6SM SKC
     FM091500 32018G26KT P6SM SKC=



000
FTUS44 KLCH 082320
TAFLCH
TAF
KLCH 082320Z 0900/0924 31020G28KT P6SM SKC
     FM090200 32013G21KT P6SM SKC
     FM090600 32008KT P6SM SKC
     FM091500 32016G24KT P6SM SKC=



000
FTUS44 KLCH 082320
TAFBPT
TAF
KBPT 082320Z 0900/0924 31020G28KT P6SM SKC
     FM090200 31014G22KT P6SM SKC
     FM090600 31008KT P6SM SKC
     FM091500 31015G23KT P6SM SKC=



000
FTUS44 KLCH 082320
TAFLFT
TAF
KLFT 082320Z 0900/0924 31020G28KT P6SM SKC
     FM090200 32014G22KT P6SM SKC
     FM090600 32008KT P6SM SKC
     FM091500 32016G24KT P6SM SKC=



000
FTUS44 KLCH 082320
TAFAEX
TAF
KAEX 082320Z 0900/0924 31022G30KT P6SM SKC
     FM090100 30014G22KT P6SM SKC
     FM090400 30008KT P6SM SKC
     FM091500 31014G22KT P6SM SKC=



000
FTUS44 KLCH 081720
TAFBPT
TAF
KBPT 081720Z 0818/0918 32016G28KT P6SM SKC
     FM090000 33011KT P6SM SKC=



000
FTUS44 KLCH 081720
TAFLCH
TAF
KLCH 081720Z 0818/0918 33017G28KT P6SM SKC
     FM090000 33012KT P6SM SKC=



000
FTUS44 KLCH 081720
TAFAEX
TAF
KAEX 081720Z 0818/0918 31017G28KT P6SM SKC
     FM090000 32010KT P6SM SKC=



000
FTUS44 KLCH 081720
TAFLFT
TAF
KLFT 081720Z 0818/0918 32017G26KT P6SM SKC
     FM090000 33013KT P6SM SKC=



000
FTUS44 KLCH 081720
TAFARA
TAF
KARA 081720Z 0818/0918 32017G26KT P6SM SKC
     FM090000 32013KT P6SM SKC=



000
FTUS44 KLCH 081208 AAA
TAFARA
TAF AMD
KARA 081208Z 0812/0912 30007KT P6SM SKC
     FM081700 32018G24KT P6SM SKC
     FM090000 32013KT P6SM SKC=



000
FTUS44 KLCH 081207 AAA
TAFAEX
TAF AMD
KAEX 081207Z 0812/0912 30010G15KT P6SM SKC
     FM081500 32017G23KT P6SM SKC
     FM090000 32010KT P6SM SKC=



000
FTUS44 KLCH 081207 AAA
TAFBPT
TAF AMD
KBPT 081207Z 0812/0912 30008KT P6SM SKC
     FM081500 33016G22KT P6SM SKC
     FM090000 33011KT P6SM SKC=



000
FTUS44 KLCH 081122
TAFBPT
TAF
KBPT 081122Z 0812/0912 33010G15KT P6SM SKC
     FM081500 33016G22KT P6SM SKC
     FM090000 33011KT P6SM SKC=



000
FTUS44 KLCH 081122
TAFLFT
TAF
KLFT 081122Z 0812/0912 33010KT P6SM SKC
     FM081500 33015G22KT P6SM SKC
     FM081700 32019G25KT P6SM SKC
     FM090000 33013KT P6SM SKC=



000
FTUS44 KLCH 081122
TAFLCH
TAF
KLCH 081122Z 0812/0912 33010G15KT P6SM SKC
     FM081600 33017G22KT P6SM SKC
     FM090000 33012KT P6SM SKC=



000
FTUS44 KLCH 081122
TAFARA
TAF
KARA 081122Z 0812/0912 32010G15KT P6SM SKC
     FM081700 32018G24KT P6SM SKC
     FM090000 32013KT P6SM SKC=



000
FTUS44 KLCH 081122
TAFAEX
TAF
KAEX 081122Z 0812/0912 33010G15KT P6SM SKC
     FM081500 33017G23KT P6SM SKC
     FM090000 32010KT P6SM SKC=



000
FTUS44 KLCH 080530
TAFARA
TAF
KARA 080530Z 0806/0906 VRB03KT P6SM SKC
      TEMPO 0808/0811 5SM BR
     FM081200 32010G15KT P6SM SKC
     FM081500 32015G22KT P6SM SKC
     FM090000 32013KT P6SM SKC=



000
FTUS44 KLCH 080530
TAFLFT
TAF
KLFT 080530Z 0806/0906 VRB04KT P6SM SKC
      TEMPO 0808/0811 5SM BR
     FM081200 33010G15KT P6SM SKC
     FM081500 33015G22KT P6SM SKC
     FM090000 33013KT P6SM SKC=



000
FTUS44 KLCH 080530
TAFLFT
TAF
KLFT 080530Z 0806/0906 VRB04KT P6SM SKC
      TEMPO 0808/0811 5SM BR
     FM081200 33010G15KT P6SM SKC
     FM081500 33015G22KT P6SM SKC
     FM090000 33013KT P6SM SKC=



000
FTUS44 KLCH 080530
TAFLCH
TAF
KLCH 080530Z 0806/0906 VRB03KT P6SM SKC
      TEMPO 0807/0810 4SM BR
     FM081200 33010G15KT P6SM SKC
     FM081500 33015G22KT P6SM SKC
     FM090000 33012KT P6SM SKC=



000
FTUS44 KLCH 080530
TAFAEX
TAF
KAEX 080530Z 0806/0906 VRB03KT P6SM SKC
     FM081200 33010G15KT P6SM SKC
     FM081500 33016G23KT P6SM SKC
     FM090000 32010KT P6SM SKC=



000
FTUS44 KLCH 080530
TAFBPT
TAF
KBPT 080530Z 0806/0906 VRB03KT 4SM BR SKC
      TEMPO 0806/0810 1 1/2SM BR
     FM081200 33010G15KT P6SM SKC
     FM081500 33015G22KT P6SM SKC
     FM090000 33011KT P6SM SKC=



000
FTUS44 KLCH 080530
TAFARA
TAF
KARA 080530Z 0806/0906 VRB03KT P6SM SKC
      TEMPO 0808/0811 5SM BR
     FM081200 32010G15KT P6SM SKC
     FM081500 32015G22KT P6SM SKC
     FM090000 32013KT P6SM SKC=



000
FTUS44 KLCH 080530
TAFAEX
TAF
KAEX 080530Z 0806/0906 VRB03KT P6SM SKC
     FM081200 33010G15KT P6SM SKC
     FM081500 33016G23KT P6SM SKC
     FM090000 32010KT P6SM SKC=



000
FTUS44 KLCH 080530
TAFLCH
TAF
KLCH 080530Z 0806/0906 VRB03KT P6SM SKC
      TEMPO 0807/0810 4SM BR
     FM081200 33010G15KT P6SM SKC
     FM081500 33015G22KT P6SM SKC
     FM090000 33012KT P6SM SKC=



000
FTUS44 KLCH 080530
TAFBPT
TAF
KBPT 080530Z 0806/0906 VRB03KT 4SM BR SKC
      TEMPO 0806/0810 1 1/2SM BR
     FM081200 33010G15KT P6SM SKC
     FM081500 33015G22KT P6SM SKC
     FM090000 33011KT P6SM SKC=



000
FTUS44 KLCH 072340
TAFARA
TAF
KARA 072340Z 0800/0824 23008KT P6SM SKC
     FM080200 VRB04KT P6SM SKC
      TEMPO 0806/0810 4SM BR
     FM081200 32010G15KT P6SM SKC
     FM081500 32015G22KT P6SM SKC=



000
FTUS44 KLCH 072340
TAFBPT
TAF
KBPT 072340Z 0800/0824 19008KT P6SM SKC
     FM080200 VRB03KT P6SM SKC
      TEMPO 0806/0810 4SM BR
     FM081200 33010G15KT P6SM SKC
     FM081500 33015G22KT P6SM SKC=



000
FTUS44 KLCH 072340
TAFLFT
TAF
KLFT 072340Z 0800/0824 23006KT P6SM SKC
     FM080200 VRB04KT P6SM SKC
      TEMPO 0806/0810 4SM BR
     FM081200 33010G15KT P6SM SKC
     FM081500 33015G22KT P6SM SKC=



000
FTUS44 KLCH 072340
TAFBPT
TAF
KBPT 072340Z 0800/0824 19008KT P6SM SKC
     FM080200 VRB03KT P6SM SKC
      TEMPO 0806/0810 4SM BR
     FM081200 33010G15KT P6SM SKC
     FM081500 33015G22KT P6SM SKC=



000
FTUS44 KLCH 072340
TAFAEX
TAF
KAEX 072340Z 0800/0824 24006KT P6SM SKC
     FM080200 VRB03KT P6SM SKC
     FM081200 33010G15KT P6SM SKC
     FM081500 33016G23KT P6SM SKC=



000
FTUS44 KLCH 072340
TAFLCH
TAF
KLCH 072340Z 0800/0824 21006KT P6SM SKC
     FM080200 VRB03KT P6SM SKC
      TEMPO 0806/0810 4SM BR
     FM081200 33010G15KT P6SM SKC
     FM081500 33015G22KT P6SM SKC=



000
FTUS44 KLCH 072340
TAFARA
TAF
KARA 072340Z 0800/0824 23008KT P6SM SKC
     FM080200 VRB04KT P6SM SKC
      TEMPO 0806/0810 4SM BR
     FM081200 32010G15KT P6SM SKC
     FM081500 32015G22KT P6SM SKC=



000
FTUS44 KLCH 072340
TAFLFT
TAF
KLFT 072340Z 0800/0824 23006KT P6SM SKC
     FM080200 VRB04KT P6SM SKC
      TEMPO 0806/0810 4SM BR
     FM081200 33010G15KT P6SM SKC
     FM081500 33015G22KT P6SM SKC=



000
FTUS44 KLCH 072340
TAFLCH
TAF
KLCH 072340Z 0800/0824 21006KT P6SM SKC
     FM080200 VRB03KT P6SM SKC
      TEMPO 0806/0810 4SM BR
     FM081200 33010G15KT P6SM SKC
     FM081500 33015G22KT P6SM SKC=



000
FTUS44 KLCH 072340
TAFAEX
TAF
KAEX 072340Z 0800/0824 24006KT P6SM SKC
     FM080200 VRB03KT P6SM SKC
     FM081200 33010G15KT P6SM SKC
     FM081500 33016G23KT P6SM SKC=



000
FTUS44 KLCH 071737
TAFLCH
TAF
KLCH 071737Z 0718/0818 18006KT P6SM SKC
     FM080100 VRB03KT P6SM SKC
      TEMPO 0806/0810 4SM BR
     FM081200 33010G15KT P6SM SKC
     FM081500 33015G22KT P6SM SKC=



000
FTUS44 KLCH 071737
TAFARA
TAF
KARA 071737Z 0718/0818 VRB05KT P6SM SKC
      TEMPO 0806/0810 4SM BR
     FM081200 32010G15KT P6SM SKC
     FM081500 32015G22KT P6SM SKC=



000
FTUS44 KLCH 071737
TAFLFT
TAF
KLFT 071737Z 0718/0818 VRB05KT P6SM SKC
      TEMPO 0806/0810 4SM BR
     FM081200 33010G15KT P6SM SKC
     FM081500 33015G22KT P6SM SKC=



000
FTUS44 KLCH 071737
TAFAEX
TAF
KAEX 071737Z 0718/0818 21006KT P6SM SKC
     FM080100 VRB03KT P6SM SKC
     FM081200 33010G15KT P6SM SKC
     FM081500 33016G23KT P6SM SKC=



000
FTUS44 KLCH 071737
TAFBPT
TAF
KBPT 071737Z 0718/0818 18006KT P6SM SKC
     FM080100 VRB03KT P6SM SKC
      TEMPO 0806/0810 4SM BR
     FM081200 33010G15KT P6SM SKC
     FM081500 33015G22KT P6SM SKC=



000
FTUS44 KLCH 071407 AAA
TAFLCH
TAF AMD
KLCH 071407Z 0714/0812 VRB04KT P6SM SKC
      TEMPO 0714/0715 5SM BR
     FM072000 20008KT P6SM SCT250
     FM080100 VRB03KT P6SM BKN250=



000
FTUS44 KLCH 071407 AAA
TAFLCH
TAF AMD
KLCH 071407Z 0714/0812 VRB04KT P6SM SKC
      TEMPO 0714/0715 5SM BR
     FM072000 20008KT P6SM SCT250
     FM080100 VRB03KT P6SM BKN250=



000
FTUS44 KLCH 071145 CCA
TAFARA
TAF COR
KARA 071145Z 0712/0812 00000KT 3SM BR SKC
      TEMPO 0712/0714 1SM BR
     FM071400 VRB03KT P6SM SKC
     FM072000 21007KT P6SM SCT250
     FM080100 VRB03KT P6SM BKN250=



000
FTUS44 KLCH 071120
TAFAEX
TAF
KAEX 071120Z 0712/0812 00000KT 4SM BR FEW004
      TEMPO 0712/0715 1SM BR
     FM071500 VRB03KT P6SM SKC
     FM072000 21007KT P6SM SCT250
     FM080100 VRB05KT P6SM BKN250=



000
FTUS44 KLCH 071120
TAFLCH
TAF
KLCH 071120Z 0712/0812 00000KT 2SM BR SKC
      TEMPO 0712/0715 1/2SM FG
     FM071500 VRB04KT P6SM SKC
     FM072000 20008KT P6SM SCT250
     FM080100 VRB03KT P6SM BKN250=



000
FTUS44 KLCH 071120
TAFLFT
TAF
KLFT 071120Z 0712/0812 VRB03KT P6SM SKC
      TEMPO 0712/0714 5SM BR
     FM072000 21007KT P6SM SCT250
     FM080100 VRB03KT P6SM BKN250=



000
FTUS44 KLCH 071120
TAFBPT
TAF
KBPT 071120Z 0712/0812 00000KT 1SM BR SKC
      TEMPO 0712/0715 1/4SM FG VV002
     FM071500 VRB04KT P6SM SKC
     FM072000 19008KT P6SM SCT250
     FM080100 VRB03KT P6SM BKN250=



000
FTUS44 KLCH 071120
TAFARA
TAF
KARA 071120Z 0712/0812 VRB03KT P6SM SKC
      TEMPO 0712/0714 5SM BR
     FM072000 21007KT P6SM SCT250
     FM080100 VRB03KT P6SM BKN250=



000
FTUS44 KLCH 071002 CCA
TAFBPT
TAF COR
KBPT 071002Z 0710/0806 00000KT 3SM BR SKC
      TEMPO 0710/0714 1SM BR
     FM071500 VRB04KT P6SM SKC
     FM072000 20008KT P6SM SKC=



000
FTUS44 KLCH 071002 CCA
TAFLCH
TAF COR
KLCH 071002Z 0710/0806 00000KT 3SM BR SKC
      TEMPO 0712/0714 1SM BR
     FM071500 VRB04KT P6SM SKC
     FM072000 20008KT P6SM SKC=



000
FTUS44 KLCH 071001 AAA
TAFLCH
TAF AMD
KLCH 071001Z 0710/0806 00000KT 3SM BR SKC
      TEMPO 0712/0714 1SM BR
     FM072000 20008KT P6SM SKC=



000
FTUS44 KLCH 071001 AAA
TAFLCH
TAF AMD
KLCH 071001Z 0710/0806 00000KT 3SM BR SKC
      TEMPO 0712/0714 1SM BR
     FM072000 20008KT P6SM SKC=



000
FTUS44 KLCH 071001 AAA
TAFBPT
TAF AMD
KBPT 071001Z 0710/0806 00000KT 3SM BR SKC
      TEMPO 0710/0714 1SM BR
     FM072000 20008KT P6SM SKC=



000
FTUS44 KLCH 070520
TAFAEX
TAF
KAEX 070520Z 0706/0806 00000KT P6SM SKC
      TEMPO 0709/0713 3SM BR
     FM072000 22007KT P6SM SKC=



000
FTUS44 KLCH 070520
TAFLFT
TAF
KLFT 070520Z 0706/0806 00000KT P6SM SKC
      TEMPO 0709/0713 3SM BR
     FM072000 20007KT P6SM SKC=



000
FTUS44 KLCH 070520
TAFBPT
TAF
KBPT 070520Z 0706/0806 00000KT 6SM BR SKC
      TEMPO 0709/0713 2SM BR
     FM072000 20008KT P6SM SKC=



000
FTUS44 KLCH 070520
TAFLCH
TAF
KLCH 070520Z 0706/0806 00000KT 6SM BR SKC
      TEMPO 0709/0713 2SM BR
     FM072000 20008KT P6SM SKC=



000
FTUS44 KLCH 070520
TAFARA
TAF
KARA 070520Z 0706/0806 00000KT P6SM SKC
      TEMPO 0709/0713 3SM BR
     FM072000 20008KT P6SM SKC=



    US Dept of Commerce
    National Oceanic and Atmospheric Administration
    National Weather Service
    1325 East West Highway
    Silver Spring, MD 20910
    Page Author: NWS Internet Services Team
Disclaimer
Information Quality
Credits
Glossary
Privacy Policy
Freedom of Information Act (FOIA)
About Us
Career Opportunities